sensor_id;sensor_type;location;lat;lon;timestamp;temperature;humidity
22290;DHT22;11313;50.116;8.424;2022-12-20T00:01:50;23.60;41.10
22290;DHT22;11313;50.116;8.424;2022-12-20T00:04:16;23.60;41.10
22290;DHT22;11313;50.116;8.424;2022-12-20T00:06:41;23.60;41.10
22290;DHT22;11313;50.116;8.424;2022-12-20T00:09:08;23.60;41.20
22290;DHT22;11313;50.116;8.424;2022-12-20T00:11:34;23.60;41.20
22290;DHT22;11313;50.116;8.424;2022-12-20T00:14:00;23.60;41.20
22290;DHT22;11313;50.116;8.424;2022-12-20T00:16:27;23.60;41.20
22290;DHT22;11313;50.116;8.424;2022-12-20T00:18:58;23.60;41.20
22290;DHT22;11313;50.116;8.424;2022-12-20T00:21:25;23.60;41.20
22290;DHT22;11313;50.116;8.424;2022-12-20T00:23:51;23.60;41.20
22290;DHT22;11313;50.116;8.424;2022-12-20T00:26:20;23.60;41.20
22290;DHT22;11313;50.116;8.424;2022-12-20T00:28:46;23.60;41.20
22290;DHT22;11313;50.116;8.424;2022-12-20T00:31:14;23.60;41.20
22290;DHT22;11313;50.116;8.424;2022-12-20T00:33:40;23.60;41.20
22290;DHT22;11313;50.116;8.424;2022-12-20T00:36:09;23.60;41.30
22290;DHT22;11313;50.116;8.424;2022-12-20T00:38:34;23.60;41.30
22290;DHT22;11313;50.116;8.424;2022-12-20T00:41:11;23.60;41.20
22290;DHT22;11313;50.116;8.424;2022-12-20T00:43:38;23.60;41.20
22290;DHT22;11313;50.116;8.424;2022-12-20T00:46:04;23.60;41.30
22290;DHT22;11313;50.116;8.424;2022-12-20T00:48:31;23.60;41.30
22290;DHT22;11313;50.116;8.424;2022-12-20T00:51:01;23.60;41.20
22290;DHT22;11313;50.116;8.424;2022-12-20T00:53:28;23.60;41.20
22290;DHT22;11313;50.116;8.424;2022-12-20T00:55:54;23.60;41.20
22290;DHT22;11313;50.116;8.424;2022-12-20T00:58:19;23.60;41.20
22290;DHT22;11313;50.116;8.424;2022-12-20T01:00:45;23.60;41.30
22290;DHT22;11313;50.116;8.424;2022-12-20T01:03:10;23.60;41.20
22290;DHT22;11313;50.116;8.424;2022-12-20T01:05:36;23.60;41.30
22290;DHT22;11313;50.116;8.424;2022-12-20T01:08:02;23.60;41.20
22290;DHT22;11313;50.116;8.424;2022-12-20T01:10:28;23.60;41.30
22290;DHT22;11313;50.116;8.424;2022-12-20T01:12:53;23.60;41.30
22290;DHT22;11313;50.116;8.424;2022-12-20T01:15:19;23.60;41.30
22290;DHT22;11313;50.116;8.424;2022-12-20T01:17:46;23.60;41.30
22290;DHT22;11313;50.116;8.424;2022-12-20T01:20:11;23.60;41.30
22290;DHT22;11313;50.116;8.424;2022-12-20T01:22:37;23.60;41.20
22290;DHT22;11313;50.116;8.424;2022-12-20T01:25:03;23.60;41.20
22290;DHT22;11313;50.116;8.424;2022-12-20T01:27:28;23.60;41.20
22290;DHT22;11313;50.116;8.424;2022-12-20T01:29:54;23.60;41.20
22290;DHT22;11313;50.116;8.424;2022-12-20T01:32:19;23.60;41.20
22290;DHT22;11313;50.116;8.424;2022-12-20T01:34:45;23.60;41.20
22290;DHT22;11313;50.116;8.424;2022-12-20T01:37:11;23.60;41.20
22290;DHT22;11313;50.116;8.424;2022-12-20T01:39:36;23.60;41.20
22290;DHT22;11313;50.116;8.424;2022-12-20T01:42:03;23.70;41.20
22290;DHT22;11313;50.116;8.424;2022-12-20T01:46:54;23.60;41.20
22290;DHT22;11313;50.116;8.424;2022-12-20T01:49:24;23.60;41.20
22290;DHT22;11313;50.116;8.424;2022-12-20T01:52:03;23.70;41.20
22290;DHT22;11313;50.116;8.424;2022-12-20T01:54:33;23.60;41.20
22290;DHT22;11313;50.116;8.424;2022-12-20T01:57:02;23.60;41.20
22290;DHT22;11313;50.116;8.424;2022-12-20T01:59:31;23.60;41.20
22290;DHT22;11313;50.116;8.424;2022-12-20T02:01:59;23.70;41.50
22290;DHT22;11313;50.116;8.424;2022-12-20T02:04:26;23.70;41.20
22290;DHT22;11313;50.116;8.424;2022-12-20T02:06:52;23.70;41.20
22290;DHT22;11313;50.116;8.424;2022-12-20T02:09:17;23.70;41.20
22290;DHT22;11313;50.116;8.424;2022-12-20T02:12:07;23.70;41.10
22290;DHT22;11313;50.116;8.424;2022-12-20T02:15:03;23.70;41.10
22290;DHT22;11313;50.116;8.424;2022-12-20T02:17:55;23.70;41.20
22290;DHT22;11313;50.116;8.424;2022-12-20T02:20:50;23.80;41.20
22290;DHT22;11313;50.116;8.424;2022-12-20T02:31:39;23.80;41.20
22290;DHT22;11313;50.116;8.424;2022-12-20T02:34:08;23.70;41.10
22290;DHT22;11313;50.116;8.424;2022-12-20T02:36:34;23.80;41.10
22290;DHT22;11313;50.116;8.424;2022-12-20T02:39:00;23.80;41.20
22290;DHT22;11313;50.116;8.424;2022-12-20T02:41:29;23.80;41.10
22290;DHT22;11313;50.116;8.424;2022-12-20T02:44:01;23.70;41.10
22290;DHT22;11313;50.116;8.424;2022-12-20T02:46:47;23.70;41.10
22290;DHT22;11313;50.116;8.424;2022-12-20T02:49:17;23.70;41.10
22290;DHT22;11313;50.116;8.424;2022-12-20T02:51:45;23.80;41.10
22290;DHT22;11313;50.116;8.424;2022-12-20T02:54:12;23.70;41.10
22290;DHT22;11313;50.116;8.424;2022-12-20T02:56:43;23.70;41.10
22290;DHT22;11313;50.116;8.424;2022-12-20T02:59:17;23.80;41.10
22290;DHT22;11313;50.116;8.424;2022-12-20T03:01:47;23.80;41.20
22290;DHT22;11313;50.116;8.424;2022-12-20T03:04:16;23.80;41.20
22290;DHT22;11313;50.116;8.424;2022-12-20T03:06:59;23.70;41.10
22290;DHT22;11313;50.116;8.424;2022-12-20T03:09:25;23.80;41.20
22290;DHT22;11313;50.116;8.424;2022-12-20T03:11:51;23.70;41.10
22290;DHT22;11313;50.116;8.424;2022-12-20T03:14:17;23.70;41.20
22290;DHT22;11313;50.116;8.424;2022-12-20T03:16:43;23.70;41.20
22290;DHT22;11313;50.116;8.424;2022-12-20T03:19:08;23.70;41.20
22290;DHT22;11313;50.116;8.424;2022-12-20T03:21:34;23.70;41.10
22290;DHT22;11313;50.116;8.424;2022-12-20T03:23:59;23.70;41.20
22290;DHT22;11313;50.116;8.424;2022-12-20T03:26:25;23.80;41.20
22290;DHT22;11313;50.116;8.424;2022-12-20T03:28:51;23.80;41.20
22290;DHT22;11313;50.116;8.424;2022-12-20T03:31:16;23.70;41.20
22290;DHT22;11313;50.116;8.424;2022-12-20T03:33:42;23.70;41.20
22290;DHT22;11313;50.116;8.424;2022-12-20T03:36:07;23.70;41.20
22290;DHT22;11313;50.116;8.424;2022-12-20T03:38:33;23.70;41.20
22290;DHT22;11313;50.116;8.424;2022-12-20T03:40:58;23.70;41.20
22290;DHT22;11313;50.116;8.424;2022-12-20T03:43:24;23.70;41.20
22290;DHT22;11313;50.116;8.424;2022-12-20T03:45:49;23.70;41.20
22290;DHT22;11313;50.116;8.424;2022-12-20T03:48:15;23.70;41.20
22290;DHT22;11313;50.116;8.424;2022-12-20T03:50:40;23.60;41.20
22290;DHT22;11313;50.116;8.424;2022-12-20T03:53:06;23.60;41.20
22290;DHT22;11313;50.116;8.424;2022-12-20T03:55:31;23.70;41.30
22290;DHT22;11313;50.116;8.424;2022-12-20T03:57:57;23.60;41.20
22290;DHT22;11313;50.116;8.424;2022-12-20T04:00:22;23.70;41.30
22290;DHT22;11313;50.116;8.424;2022-12-20T04:02:48;23.70;41.30
22290;DHT22;11313;50.116;8.424;2022-12-20T04:05:14;23.70;41.30
22290;DHT22;11313;50.116;8.424;2022-12-20T04:07:41;23.70;41.30
22290;DHT22;11313;50.116;8.424;2022-12-20T04:10:06;23.60;41.30
22290;DHT22;11313;50.116;8.424;2022-12-20T04:12:32;23.60;41.20
22290;DHT22;11313;50.116;8.424;2022-12-20T04:14:58;23.60;41.30
22290;DHT22;11313;50.116;8.424;2022-12-20T04:17:23;23.60;41.30
22290;DHT22;11313;50.116;8.424;2022-12-20T04:19:49;23.70;41.30
22290;DHT22;11313;50.116;8.424;2022-12-20T04:22:14;23.60;41.20
22290;DHT22;11313;50.116;8.424;2022-12-20T04:24:39;23.60;41.30
22290;DHT22;11313;50.116;8.424;2022-12-20T04:27:05;23.60;41.30
22290;DHT22;11313;50.116;8.424;2022-12-20T04:29:31;23.60;41.20
22290;DHT22;11313;50.116;8.424;2022-12-20T04:31:56;23.70;41.30
22290;DHT22;11313;50.116;8.424;2022-12-20T04:34:22;23.70;41.30
22290;DHT22;11313;50.116;8.424;2022-12-20T04:36:47;23.70;41.30
22290;DHT22;11313;50.116;8.424;2022-12-20T04:39:13;23.70;41.20
22290;DHT22;11313;50.116;8.424;2022-12-20T04:41:38;23.70;41.30
22290;DHT22;11313;50.116;8.424;2022-12-20T04:44:04;23.70;41.30
22290;DHT22;11313;50.116;8.424;2022-12-20T04:46:29;23.70;41.30
22290;DHT22;11313;50.116;8.424;2022-12-20T04:48:55;23.70;41.30
22290;DHT22;11313;50.116;8.424;2022-12-20T04:51:20;23.70;41.20
22290;DHT22;11313;50.116;8.424;2022-12-20T04:53:46;23.70;41.20
22290;DHT22;11313;50.116;8.424;2022-12-20T04:56:19;23.70;41.20
22290;DHT22;11313;50.116;8.424;2022-12-20T04:58:46;23.80;41.30
22290;DHT22;11313;50.116;8.424;2022-12-20T05:01:13;23.70;41.20
22290;DHT22;11313;50.116;8.424;2022-12-20T05:03:39;23.70;41.30
22290;DHT22;11313;50.116;8.424;2022-12-20T05:06:05;23.70;41.20
22290;DHT22;11313;50.116;8.424;2022-12-20T05:08:31;23.80;41.20
22290;DHT22;11313;50.116;8.424;2022-12-20T05:10:57;23.70;41.20
22290;DHT22;11313;50.116;8.424;2022-12-20T05:13:23;23.80;41.30
22290;DHT22;11313;50.116;8.424;2022-12-20T05:15:52;23.70;41.20
22290;DHT22;11313;50.116;8.424;2022-12-20T05:18:18;23.70;41.10
22290;DHT22;11313;50.116;8.424;2022-12-20T05:20:44;23.80;41.20
22290;DHT22;11313;50.116;8.424;2022-12-20T05:23:10;23.70;41.10
22290;DHT22;11313;50.116;8.424;2022-12-20T05:25:54;23.80;41.20
22290;DHT22;11313;50.116;8.424;2022-12-20T05:28:38;23.80;41.10
22290;DHT22;11313;50.116;8.424;2022-12-20T05:31:04;23.80;41.10
22290;DHT22;11313;50.116;8.424;2022-12-20T05:33:29;23.80;41.20
22290;DHT22;11313;50.116;8.424;2022-12-20T05:35:55;23.70;41.10
22290;DHT22;11313;50.116;8.424;2022-12-20T05:38:21;23.80;41.20
22290;DHT22;11313;50.116;8.424;2022-12-20T05:40:48;23.80;41.80
22290;DHT22;11313;50.116;8.424;2022-12-20T05:43:14;23.80;41.20
22290;DHT22;11313;50.116;8.424;2022-12-20T05:45:47;23.70;41.20
22290;DHT22;11313;50.116;8.424;2022-12-20T05:48:14;23.70;41.10
22290;DHT22;11313;50.116;8.424;2022-12-20T05:50:40;23.80;41.20
22290;DHT22;11313;50.116;8.424;2022-12-20T05:53:05;23.80;41.20
22290;DHT22;11313;50.116;8.424;2022-12-20T05:55:31;23.80;41.20
22290;DHT22;11313;50.116;8.424;2022-12-20T05:57:56;23.80;41.20
22290;DHT22;11313;50.116;8.424;2022-12-20T06:00:22;23.70;41.10
22290;DHT22;11313;50.116;8.424;2022-12-20T06:02:48;23.70;41.20
22290;DHT22;11313;50.116;8.424;2022-12-20T06:05:14;23.70;41.20
22290;DHT22;11313;50.116;8.424;2022-12-20T06:07:39;23.70;41.10
22290;DHT22;11313;50.116;8.424;2022-12-20T06:10:05;23.70;41.10
22290;DHT22;11313;50.116;8.424;2022-12-20T06:12:32;23.70;41.20
22290;DHT22;11313;50.116;8.424;2022-12-20T06:14:57;23.80;41.20
22290;DHT22;11313;50.116;8.424;2022-12-20T06:17:22;23.70;41.20
22290;DHT22;11313;50.116;8.424;2022-12-20T06:19:48;23.70;41.20
22290;DHT22;11313;50.116;8.424;2022-12-20T06:22:13;23.70;41.20
22290;DHT22;11313;50.116;8.424;2022-12-20T06:24:39;23.70;41.20
22290;DHT22;11313;50.116;8.424;2022-12-20T06:27:04;23.80;41.30
22290;DHT22;11313;50.116;8.424;2022-12-20T06:29:32;23.70;41.20
22290;DHT22;11313;50.116;8.424;2022-12-20T06:31:57;23.70;41.20
22290;DHT22;11313;50.116;8.424;2022-12-20T06:34:23;23.70;41.20
22290;DHT22;11313;50.116;8.424;2022-12-20T06:36:48;23.70;41.20
22290;DHT22;11313;50.116;8.424;2022-12-20T06:39:14;23.70;41.20
22290;DHT22;11313;50.116;8.424;2022-12-20T06:41:40;23.70;41.20
22290;DHT22;11313;50.116;8.424;2022-12-20T06:44:06;23.60;41.20
22290;DHT22;11313;50.116;8.424;2022-12-20T06:46:31;23.70;41.20
22290;DHT22;11313;50.116;8.424;2022-12-20T06:48:57;23.70;41.30
22290;DHT22;11313;50.116;8.424;2022-12-20T06:51:23;23.70;41.30
22290;DHT22;11313;50.116;8.424;2022-12-20T06:53:48;23.60;41.20
22290;DHT22;11313;50.116;8.424;2022-12-20T06:56:14;23.60;41.30
22290;DHT22;11313;50.116;8.424;2022-12-20T06:58:39;23.60;41.30
22290;DHT22;11313;50.116;8.424;2022-12-20T07:01:05;23.60;41.30
22290;DHT22;11313;50.116;8.424;2022-12-20T07:03:30;23.60;41.30
22290;DHT22;11313;50.116;8.424;2022-12-20T07:05:56;23.60;41.40
22290;DHT22;11313;50.116;8.424;2022-12-20T07:08:22;23.60;41.40
22290;DHT22;11313;50.116;8.424;2022-12-20T07:10:48;23.60;41.40
22290;DHT22;11313;50.116;8.424;2022-12-20T07:13:13;23.70;41.50
22290;DHT22;11313;50.116;8.424;2022-12-20T07:15:39;23.60;41.50
22290;DHT22;11313;50.116;8.424;2022-12-20T07:18:05;23.60;41.50
22290;DHT22;11313;50.116;8.424;2022-12-20T07:20:31;23.60;41.40
22290;DHT22;11313;50.116;8.424;2022-12-20T07:22:57;23.60;41.50
22290;DHT22;11313;50.116;8.424;2022-12-20T07:25:59;23.60;41.40
22290;DHT22;11313;50.116;8.424;2022-12-20T07:28:26;23.60;41.40
22290;DHT22;11313;50.116;8.424;2022-12-20T07:30:52;23.60;41.50
22290;DHT22;11313;50.116;8.424;2022-12-20T07:33:19;23.60;41.40
22290;DHT22;11313;50.116;8.424;2022-12-20T07:35:45;23.60;41.40
22290;DHT22;11313;50.116;8.424;2022-12-20T07:38:12;23.60;41.40
22290;DHT22;11313;50.116;8.424;2022-12-20T07:40:42;23.60;41.40
22290;DHT22;11313;50.116;8.424;2022-12-20T07:43:10;23.60;41.90
22290;DHT22;11313;50.116;8.424;2022-12-20T07:45:35;23.60;41.40
22290;DHT22;11313;50.116;8.424;2022-12-20T07:48:02;23.60;41.40
22290;DHT22;11313;50.116;8.424;2022-12-20T07:50:28;23.60;41.40
22290;DHT22;11313;50.116;8.424;2022-12-20T07:52:55;23.60;41.40
22290;DHT22;11313;50.116;8.424;2022-12-20T07:55:21;23.60;41.40
22290;DHT22;11313;50.116;8.424;2022-12-20T07:57:52;23.60;41.30
22290;DHT22;11313;50.116;8.424;2022-12-20T08:00:20;23.60;41.30
22290;DHT22;11313;50.116;8.424;2022-12-20T08:02:51;23.60;41.30
22290;DHT22;11313;50.116;8.424;2022-12-20T08:05:17;23.70;41.30
22290;DHT22;11313;50.116;8.424;2022-12-20T08:07:43;23.70;41.30
22290;DHT22;11313;50.116;8.424;2022-12-20T08:10:12;23.70;41.30
22290;DHT22;11313;50.116;8.424;2022-12-20T08:12:40;23.60;41.20
22290;DHT22;11313;50.116;8.424;2022-12-20T08:15:06;23.70;41.20
22290;DHT22;11313;50.116;8.424;2022-12-20T08:17:32;23.70;41.10
22290;DHT22;11313;50.116;8.424;2022-12-20T08:19:58;23.70;41.10
22290;DHT22;11313;50.116;8.424;2022-12-20T08:22:24;23.70;41.10
22290;DHT22;11313;50.116;8.424;2022-12-20T08:24:50;23.70;41.10
22290;DHT22;11313;50.116;8.424;2022-12-20T08:27:15;23.70;41.10
22290;DHT22;11313;50.116;8.424;2022-12-20T08:29:41;23.70;41.10
22290;DHT22;11313;50.116;8.424;2022-12-20T08:32:07;23.70;41.10
22290;DHT22;11313;50.116;8.424;2022-12-20T08:34:32;23.70;41.10
22290;DHT22;11313;50.116;8.424;2022-12-20T08:36:58;23.70;41.00
22290;DHT22;11313;50.116;8.424;2022-12-20T08:39:24;23.80;41.00
22290;DHT22;11313;50.116;8.424;2022-12-20T08:41:49;23.80;41.00
22290;DHT22;11313;50.116;8.424;2022-12-20T08:44:15;23.80;41.00
22290;DHT22;11313;50.116;8.424;2022-12-20T08:46:40;23.80;41.10
22290;DHT22;11313;50.116;8.424;2022-12-20T08:49:06;23.80;41.00
22290;DHT22;11313;50.116;8.424;2022-12-20T08:51:31;23.80;41.10
22290;DHT22;11313;50.116;8.424;2022-12-20T08:53:57;23.80;41.00
22290;DHT22;11313;50.116;8.424;2022-12-20T08:56:22;23.80;41.00
22290;DHT22;11313;50.116;8.424;2022-12-20T08:58:48;23.80;41.00
22290;DHT22;11313;50.116;8.424;2022-12-20T09:01:16;23.80;41.00
22290;DHT22;11313;50.116;8.424;2022-12-20T09:03:42;23.80;41.00
22290;DHT22;11313;50.116;8.424;2022-12-20T09:06:10;23.70;40.90
22290;DHT22;11313;50.116;8.424;2022-12-20T09:08:37;23.80;41.00
22290;DHT22;11313;50.116;8.424;2022-12-20T09:13:33;23.70;40.90
22290;DHT22;11313;50.116;8.424;2022-12-20T09:16:00;23.70;41.00
22290;DHT22;11313;50.116;8.424;2022-12-20T09:18:26;23.70;40.90
22290;DHT22;11313;50.116;8.424;2022-12-20T09:20:51;23.70;40.90
22290;DHT22;11313;50.116;8.424;2022-12-20T09:23:17;23.70;40.90
22290;DHT22;11313;50.116;8.424;2022-12-20T09:25:42;23.70;40.90
22290;DHT22;11313;50.116;8.424;2022-12-20T09:28:08;23.70;40.90
22290;DHT22;11313;50.116;8.424;2022-12-20T09:30:33;23.70;40.90
22290;DHT22;11313;50.116;8.424;2022-12-20T09:32:59;23.70;40.90
22290;DHT22;11313;50.116;8.424;2022-12-20T09:35:24;23.70;40.90
22290;DHT22;11313;50.116;8.424;2022-12-20T09:37:51;23.70;40.90
22290;DHT22;11313;50.116;8.424;2022-12-20T09:40:19;23.70;40.90
22290;DHT22;11313;50.116;8.424;2022-12-20T09:42:47;23.70;40.90
22290;DHT22;11313;50.116;8.424;2022-12-20T09:45:21;23.70;40.90
22290;DHT22;11313;50.116;8.424;2022-12-20T09:47:47;23.70;40.90
22290;DHT22;11313;50.116;8.424;2022-12-20T09:50:17;23.70;40.80
22290;DHT22;11313;50.116;8.424;2022-12-20T09:52:49;23.70;40.90
22290;DHT22;11313;50.116;8.424;2022-12-20T09:55:33;23.70;40.90
22290;DHT22;11313;50.116;8.424;2022-12-20T10:00:48;23.70;40.90
22290;DHT22;11313;50.116;8.424;2022-12-20T10:03:32;23.70;40.90
22290;DHT22;11313;50.116;8.424;2022-12-20T10:06:12;23.70;40.90
22290;DHT22;11313;50.116;8.424;2022-12-20T10:08:42;23.70;40.90
22290;DHT22;11313;50.116;8.424;2022-12-20T10:11:49;23.70;40.90
22290;DHT22;11313;50.116;8.424;2022-12-20T10:14:43;23.70;40.90
22290;DHT22;11313;50.116;8.424;2022-12-20T10:17:26;23.70;40.90
22290;DHT22;11313;50.116;8.424;2022-12-20T10:23:02;23.70;40.90
22290;DHT22;11313;50.116;8.424;2022-12-20T10:25:33;23.70;40.90
22290;DHT22;11313;50.116;8.424;2022-12-20T10:28:08;23.70;40.80
22290;DHT22;11313;50.116;8.424;2022-12-20T10:30:35;23.70;40.80
22290;DHT22;11313;50.116;8.424;2022-12-20T10:33:01;23.70;40.80
22290;DHT22;11313;50.116;8.424;2022-12-20T10:35:35;23.70;40.80
22290;DHT22;11313;50.116;8.424;2022-12-20T10:38:04;23.70;40.80
22290;DHT22;11313;50.116;8.424;2022-12-20T10:40:34;23.70;40.80
22290;DHT22;11313;50.116;8.424;2022-12-20T10:43:02;23.70;40.80
22290;DHT22;11313;50.116;8.424;2022-12-20T10:48:01;23.70;40.90
22290;DHT22;11313;50.116;8.424;2022-12-20T10:50:27;23.70;40.80
22290;DHT22;11313;50.116;8.424;2022-12-20T10:55:38;23.80;40.90
22290;DHT22;11313;50.116;8.424;2022-12-20T11:00:37;23.80;40.90
22290;DHT22;11313;50.116;8.424;2022-12-20T11:03:14;23.80;40.90
22290;DHT22;11313;50.116;8.424;2022-12-20T11:06:01;23.80;40.90
22290;DHT22;11313;50.116;8.424;2022-12-20T11:08:29;23.70;40.80
22290;DHT22;11313;50.116;8.424;2022-12-20T11:11:18;23.80;40.80
22290;DHT22;11313;50.116;8.424;2022-12-20T11:13:45;23.70;40.80
22290;DHT22;11313;50.116;8.424;2022-12-20T11:24:11;23.70;40.90
22290;DHT22;11313;50.116;8.424;2022-12-20T11:26:54;23.80;40.90
22290;DHT22;11313;50.116;8.424;2022-12-20T11:29:47;23.70;40.80
22290;DHT22;11313;50.116;8.424;2022-12-20T11:32:27;23.70;40.90
22290;DHT22;11313;50.116;8.424;2022-12-20T11:37:39;23.80;40.90
22290;DHT22;11313;50.116;8.424;2022-12-20T11:48:52;23.70;40.90
22290;DHT22;11313;50.116;8.424;2022-12-20T11:53:51;23.70;40.90
22290;DHT22;11313;50.116;8.424;2022-12-20T11:58:52;23.70;40.90
22290;DHT22;11313;50.116;8.424;2022-12-20T12:01:39;23.70;40.90
22290;DHT22;11313;50.116;8.424;2022-12-20T12:04:20;23.70;40.90
22290;DHT22;11313;50.116;8.424;2022-12-20T12:06:50;23.70;40.90
22290;DHT22;11313;50.116;8.424;2022-12-20T12:09:22;23.70;40.90
22290;DHT22;11313;50.116;8.424;2022-12-20T12:11:53;23.70;40.90
22290;DHT22;11313;50.116;8.424;2022-12-20T12:14:43;23.70;40.90
22290;DHT22;11313;50.116;8.424;2022-12-20T12:17:38;23.70;40.90
22290;DHT22;11313;50.116;8.424;2022-12-20T12:23:23;23.70;40.90
22290;DHT22;11313;50.116;8.424;2022-12-20T12:25:51;23.70;40.90
22290;DHT22;11313;50.116;8.424;2022-12-20T12:28:18;23.70;40.90
22290;DHT22;11313;50.116;8.424;2022-12-20T12:30:55;23.70;40.90
22290;DHT22;11313;50.116;8.424;2022-12-20T12:33:27;23.70;40.90
22290;DHT22;11313;50.116;8.424;2022-12-20T12:36:23;23.70;40.90
22290;DHT22;11313;50.116;8.424;2022-12-20T12:44:45;23.70;40.90
22290;DHT22;11313;50.116;8.424;2022-12-20T12:47:20;23.70;40.90
22290;DHT22;11313;50.116;8.424;2022-12-20T12:49:49;23.80;41.30
22290;DHT22;11313;50.116;8.424;2022-12-20T12:55:40;23.80;40.80
22290;DHT22;11313;50.116;8.424;2022-12-20T12:58:14;23.70;40.80
22290;DHT22;11313;50.116;8.424;2022-12-20T13:02:18;23.80;40.80
22290;DHT22;11313;50.116;8.424;2022-12-20T13:11:41;23.80;40.80
22290;DHT22;11313;50.116;8.424;2022-12-20T13:19:50;23.80;40.70
22290;DHT22;11313;50.116;8.424;2022-12-20T13:40:41;23.80;40.70
22290;DHT22;11313;50.116;8.424;2022-12-20T13:43:30;23.80;40.70
22290;DHT22;11313;50.116;8.424;2022-12-20T13:46:23;23.80;40.70
22290;DHT22;11313;50.116;8.424;2022-12-20T13:48:51;23.80;40.70
22290;DHT22;11313;50.116;8.424;2022-12-20T13:51:25;23.80;40.70
22290;DHT22;11313;50.116;8.424;2022-12-20T13:54:02;23.80;41.40
22290;DHT22;11313;50.116;8.424;2022-12-20T13:59:06;23.80;40.70
22290;DHT22;11313;50.116;8.424;2022-12-20T14:01:47;23.80;40.70
22290;DHT22;11313;50.116;8.424;2022-12-20T14:04:13;23.80;40.70
22290;DHT22;11313;50.116;8.424;2022-12-20T14:06:39;23.80;40.70
22290;DHT22;11313;50.116;8.424;2022-12-20T14:09:29;23.80;40.80
22290;DHT22;11313;50.116;8.424;2022-12-20T14:12:01;23.80;40.80
22290;DHT22;11313;50.116;8.424;2022-12-20T14:14:26;23.80;40.80
22290;DHT22;11313;50.116;8.424;2022-12-20T14:16:52;23.80;40.80
22290;DHT22;11313;50.116;8.424;2022-12-20T14:19:17;23.80;40.80
22290;DHT22;11313;50.116;8.424;2022-12-20T14:21:44;23.80;40.80
22290;DHT22;11313;50.116;8.424;2022-12-20T14:24:19;23.80;40.80
22290;DHT22;11313;50.116;8.424;2022-12-20T14:26:46;23.80;40.90
22290;DHT22;11313;50.116;8.424;2022-12-20T14:29:18;23.80;40.80
22290;DHT22;11313;50.116;8.424;2022-12-20T14:31:48;23.80;40.90
22290;DHT22;11313;50.116;8.424;2022-12-20T14:34:19;23.70;40.80
22290;DHT22;11313;50.116;8.424;2022-12-20T14:36:46;23.80;40.90
22290;DHT22;11313;50.116;8.424;2022-12-20T14:39:25;23.80;40.90
22290;DHT22;11313;50.116;8.424;2022-12-20T14:42:02;23.80;40.90
22290;DHT22;11313;50.116;8.424;2022-12-20T14:44:39;23.70;40.90
22290;DHT22;11313;50.116;8.424;2022-12-20T14:47:24;23.70;40.90
22290;DHT22;11313;50.116;8.424;2022-12-20T14:49:56;23.70;40.90
22290;DHT22;11313;50.116;8.424;2022-12-20T14:52:33;23.70;41.00
22290;DHT22;11313;50.116;8.424;2022-12-20T15:02:50;23.70;41.00
22290;DHT22;11313;50.116;8.424;2022-12-20T15:08:13;23.70;41.00
22290;DHT22;11313;50.116;8.424;2022-12-20T15:10:53;23.70;41.10
22290;DHT22;11313;50.116;8.424;2022-12-20T15:13:22;23.70;41.00
22290;DHT22;11313;50.116;8.424;2022-12-20T15:15:47;23.70;41.00
22290;DHT22;11313;50.116;8.424;2022-12-20T15:18:15;23.70;41.10
22290;DHT22;11313;50.116;8.424;2022-12-20T15:20:42;23.70;41.10
22290;DHT22;11313;50.116;8.424;2022-12-20T15:23:15;23.60;41.00
22290;DHT22;11313;50.116;8.424;2022-12-20T15:25:42;23.60;41.00
22290;DHT22;11313;50.116;8.424;2022-12-20T15:28:13;23.70;41.10
22290;DHT22;11313;50.116;8.424;2022-12-20T15:30:39;23.60;41.00
22290;DHT22;11313;50.116;8.424;2022-12-20T15:33:04;23.70;41.10
22290;DHT22;11313;50.116;8.424;2022-12-20T15:35:30;23.60;41.10
22290;DHT22;11313;50.116;8.424;2022-12-20T15:37:57;23.60;41.00
22290;DHT22;11313;50.116;8.424;2022-12-20T15:40:22;23.70;41.10
22290;DHT22;11313;50.116;8.424;2022-12-20T15:42:48;23.60;41.10
22290;DHT22;11313;50.116;8.424;2022-12-20T15:45:13;23.60;41.10
22290;DHT22;11313;50.116;8.424;2022-12-20T15:47:39;23.60;41.10
22290;DHT22;11313;50.116;8.424;2022-12-20T15:50:05;23.60;41.10
22290;DHT22;11313;50.116;8.424;2022-12-20T15:52:31;23.60;41.10
22290;DHT22;11313;50.116;8.424;2022-12-20T15:54:57;23.60;41.10
22290;DHT22;11313;50.116;8.424;2022-12-20T15:57:23;23.60;41.00
22290;DHT22;11313;50.116;8.424;2022-12-20T15:59:48;23.70;41.10
22290;DHT22;11313;50.116;8.424;2022-12-20T16:02:27;23.70;41.00
22290;DHT22;11313;50.116;8.424;2022-12-20T16:04:53;23.70;41.10
22290;DHT22;11313;50.116;8.424;2022-12-20T16:07:19;23.70;41.10
22290;DHT22;11313;50.116;8.424;2022-12-20T16:09:45;23.70;41.10
22290;DHT22;11313;50.116;8.424;2022-12-20T16:12:17;23.70;41.10
22290;DHT22;11313;50.116;8.424;2022-12-20T16:14:43;23.70;41.10
22290;DHT22;11313;50.116;8.424;2022-12-20T16:17:12;23.70;41.10
22290;DHT22;11313;50.116;8.424;2022-12-20T16:19:38;23.70;41.00
22290;DHT22;11313;50.116;8.424;2022-12-20T16:22:03;23.70;41.00
22290;DHT22;11313;50.116;8.424;2022-12-20T16:24:29;23.70;41.00
22290;DHT22;11313;50.116;8.424;2022-12-20T16:26:55;23.70;41.00
22290;DHT22;11313;50.116;8.424;2022-12-20T16:29:20;23.70;41.00
22290;DHT22;11313;50.116;8.424;2022-12-20T16:31:46;23.70;41.00
22290;DHT22;11313;50.116;8.424;2022-12-20T16:34:14;23.70;41.00
22290;DHT22;11313;50.116;8.424;2022-12-20T16:36:41;23.80;41.70
22290;DHT22;11313;50.116;8.424;2022-12-20T16:39:07;23.70;41.00
22290;DHT22;11313;50.116;8.424;2022-12-20T16:41:37;23.70;41.00
22290;DHT22;11313;50.116;8.424;2022-12-20T16:44:04;23.80;41.00
22290;DHT22;11313;50.116;8.424;2022-12-20T16:46:30;23.70;41.00
22290;DHT22;11313;50.116;8.424;2022-12-20T16:48:58;23.70;41.00
22290;DHT22;11313;50.116;8.424;2022-12-20T16:51:43;23.70;41.00
22290;DHT22;11313;50.116;8.424;2022-12-20T16:54:21;23.80;41.00
22290;DHT22;11313;50.116;8.424;2022-12-20T16:56:48;23.70;41.00
22290;DHT22;11313;50.116;8.424;2022-12-20T16:59:20;23.70;41.00
22290;DHT22;11313;50.116;8.424;2022-12-20T17:01:47;23.70;41.10
22290;DHT22;11313;50.116;8.424;2022-12-20T17:04:15;23.70;41.00
22290;DHT22;11313;50.116;8.424;2022-12-20T17:06:41;23.70;41.10
22290;DHT22;11313;50.116;8.424;2022-12-20T17:09:08;23.70;41.10
22290;DHT22;11313;50.116;8.424;2022-12-20T17:11:33;23.70;41.10
22290;DHT22;11313;50.116;8.424;2022-12-20T17:13:59;23.70;41.00
22290;DHT22;11313;50.116;8.424;2022-12-20T17:16:25;23.70;41.10
22290;DHT22;11313;50.116;8.424;2022-12-20T17:18:53;23.70;41.10
22290;DHT22;11313;50.116;8.424;2022-12-20T17:21:33;23.70;41.10
22290;DHT22;11313;50.116;8.424;2022-12-20T17:23:59;23.70;41.20
22290;DHT22;11313;50.116;8.424;2022-12-20T17:26:27;23.70;41.20
22290;DHT22;11313;50.116;8.424;2022-12-20T17:28:54;23.70;41.20
22290;DHT22;11313;50.116;8.424;2022-12-20T17:31:31;23.70;41.20